Time;durP1;ratioP1;P1;durP2;ratioP2;P2;SDS_P1;SDS_P2;PMS_P1;PMS_P2;Temp;Humidity;BMP_temperature;BMP_pressure;BME280_temperature;BME280_humidity;BME280_pressure;Samples;Min_cycle;Max_cycle;Signal;HPM_P1;HPM_P2
2022/07/20 00:00:57;;;;;;;3.07;2.80;;;;;;;20.29;100.00;96445.63;5073160;27;104548;-64
2022/07/20 00:03:26;;;;;;;2.83;2.63;;;;;;;20.33;100.00;96433.09;5076004;27;102617;-64
2022/07/20 00:05:53;;;;;;;3.90;3.30;;;;;;;20.29;100.00;96437.53;5054659;27;105689;-64
2022/07/20 00:13:46;;;;;;;3.13;2.93;;;;;;;19.82;100.00;96421.97;5072672;27;102248;-64
2022/07/20 00:16:13;;;;;;;3.37;3.07;;;;;;;19.39;100.00;96435.13;5072678;27;102594;-64
2022/07/20 00:18:41;;;;;;;3.10;2.90;;;;;;;19.51;100.00;96426.50;5073413;27;102034;-64
2022/07/20 00:21:09;;;;;;;3.43;2.97;;;;;;;19.52;100.00;96428.88;5054255;27;103648;-64
2022/07/20 00:23:37;;;;;;;3.90;2.97;;;;;;;19.43;100.00;96424.53;5054553;27;102548;-64
2022/07/20 00:26:04;;;;;;;3.73;3.37;;;;;;;19.35;100.00;96430.66;5057968;27;102035;-64
2022/07/20 00:28:31;;;;;;;4.83;3.20;;;;;;;19.40;100.00;96428.63;5054014;27;106466;-64
2022/07/20 00:30:58;;;;;;;5.97;3.03;;;;;;;19.38;100.00;96428.16;5054236;27;102553;-64
2022/07/20 00:33:25;;;;;;;3.57;3.17;;;;;;;19.16;100.00;96427.28;5072917;27;102550;-64
2022/07/20 00:35:54;;;;;;;3.47;3.17;;;;;;;19.13;100.00;96427.88;5053861;27;105710;-64
2022/07/20 00:38:21;;;;;;;5.47;3.30;;;;;;;19.17;100.00;96423.47;5072084;27;101724;-64
2022/07/20 00:40:49;;;;;;;3.53;3.23;;;;;;;19.21;100.00;96421.75;5054031;27;103862;-64
2022/07/20 00:43:16;;;;;;;3.80;3.20;;;;;;;19.10;100.00;96417.69;5071854;27;104928;-64
2022/07/20 00:45:43;;;;;;;4.10;3.50;;;;;;;19.35;100.00;96426.03;5072614;27;101917;-64
2022/07/20 00:48:10;;;;;;;4.03;3.47;;;;;;;19.17;100.00;96420.78;5075930;27;102364;-64
2022/07/20 00:50:38;;;;;;;3.43;3.20;;;;;;;19.09;100.00;96418.81;5072589;27;101856;-63
2022/07/20 00:53:09;;;;;;;3.70;3.37;;;;;;;19.16;100.00;96419.19;5054529;27;105494;-64
2022/07/20 00:55:37;;;;;;;5.83;3.63;;;;;;;19.28;100.00;96422.16;5072034;27;102910;-64
2022/07/20 00:58:04;;;;;;;4.40;3.10;;;;;;;19.25;100.00;96418.22;5054092;27;102401;-63
2022/07/20 01:00:31;;;;;;;3.40;3.10;;;;;;;19.25;100.00;96418.22;5072565;27;102471;-64
2022/07/20 01:02:58;;;;;;;4.17;3.80;;;;;;;19.34;100.00;96415.59;5071805;27;102734;-64
2022/07/20 01:05:26;;;;;;;4.17;3.50;;;;;;;19.23;100.00;96419.63;5053889;27;101912;-64
2022/07/20 01:07:53;;;;;;;3.73;3.43;;;;;;;19.16;100.00;96413.78;5056394;27;103693;-63
2022/07/20 01:10:22;;;;;;;4.43;2.90;;;;;;;19.28;100.00;96419.47;5072370;27;101888;-64
2022/07/20 01:12:50;;;;;;;3.00;2.80;;;;;;;19.35;100.00;96417.19;5053439;27;103575;-64
2022/07/20 01:15:18;;;;;;;4.00;3.00;;;;;;;19.35;100.00;96415.25;5071582;27;101743;-63
2022/07/20 01:17:46;;;;;;;3.47;3.17;;;;;;;19.30;100.00;96412.69;5072467;27;101754;-64
2022/07/20 01:20:16;;;;;;;3.60;3.30;;;;;;;19.06;100.00;96414.00;5071884;27;102588;-64
2022/07/20 01:22:45;;;;;;;3.30;3.00;;;;;;;19.10;100.00;96405.03;5071792;27;102666;-64
2022/07/20 01:25:12;;;;;;;3.80;3.43;;;;;;;19.16;100.00;96409.22;5072109;27;101890;-64
2022/07/20 01:27:40;;;;;;;3.30;3.00;;;;;;;19.04;100.00;96411.63;5072211;27;102383;-64
2022/07/20 01:30:08;;;;;;;3.33;3.07;;;;;;;19.13;100.00;96411.72;5056255;27;103830;-64
2022/07/20 01:32:35;;;;;;;3.67;3.13;;;;;;;19.26;100.00;96416.28;5071774;27;102608;-63
2022/07/20 01:35:02;;;;;;;3.67;3.30;;;;;;;19.19;100.00;96415.91;5071420;27;102809;-64
2022/07/20 01:37:29;;;;;;;3.40;3.10;;;;;;;19.21;100.00;96410.97;5071972;27;101886;-63
2022/07/20 01:39:59;;;;;;;3.20;2.90;;;;;;;19.08;100.00;96415.31;5071930;27;102393;-64
2022/07/20 01:42:26;;;;;;;4.93;3.43;;;;;;;18.83;100.00;96415.06;5071079;27;102629;-64
2022/07/20 01:44:53;;;;;;;4.17;3.40;;;;;;;18.94;100.00;96416.44;5071655;27;102190;-64
2022/07/20 01:47:20;;;;;;;3.40;3.10;;;;;;;18.98;100.00;96407.47;5071736;27;103863;-64
2022/07/20 01:49:47;;;;;;;3.23;2.93;;;;;;;18.79;100.00;96408.66;5070683;27;103019;-63
2022/07/20 01:52:14;;;;;;;3.47;3.27;;;;;;;18.52;100.00;96414.88;5075202;27;101774;-64
2022/07/20 01:54:42;;;;;;;3.87;3.47;;;;;;;18.34;100.00;96417.66;5071167;27;102494;-64
2022/07/20 01:57:10;;;;;;;4.07;3.17;;;;;;;18.11;100.00;96419.41;5071393;27;101845;-64
2022/07/20 01:59:37;;;;;;;4.30;3.27;;;;;;;18.29;100.00;96420.41;5071514;27;102541;-64
2022/07/20 02:02:04;;;;;;;3.73;3.23;;;;;;;18.35;100.00;96408.47;5070802;27;103131;-64
2022/07/20 02:04:35;;;;;;;4.93;3.50;;;;;;;18.26;100.00;96405.66;5053092;27;101937;-64
2022/07/20 02:07:02;;;;;;;3.93;3.17;;;;;;;18.31;100.00;96410.94;5071396;27;102799;-64
2022/07/20 02:09:30;;;;;;;4.07;3.67;;;;;;;18.27;100.00;96399.19;5052333;27;105437;-64
2022/07/20 02:11:57;;;;;;;3.97;3.60;;;;;;;18.30;100.00;96408.53;5071264;27;101968;-63
2022/07/20 02:14:26;;;;;;;4.20;3.43;;;;;;;18.30;100.00;96405.84;5074099;27;102446;-63
2022/07/20 02:16:53;;;;;;;3.80;3.50;;;;;;;18.05;100.00;96398.25;5071268;27;101833;-64
2022/07/20 02:19:20;;;;;;;4.70;3.77;;;;;;;18.05;100.00;96406.34;5071324;27;102328;-63
2022/07/20 02:21:47;;;;;;;4.20;3.53;;;;;;;18.09;100.00;96400.03;5085858;27;104147;-63
2022/07/20 02:24:15;;;;;;;3.67;3.33;;;;;;;17.95;100.00;96390.38;5071144;27;101825;-63
2022/07/20 02:26:42;;;;;;;3.73;3.50;;;;;;;17.82;100.00;96400.00;5071117;27;103873;-63
2022/07/20 02:29:09;;;;;;;5.03;3.80;;;;;;;17.70;100.00;96396.97;5051925;27;105615;-63
2022/07/20 02:31:38;;;;;;;3.90;3.13;;;;;;;17.73;100.00;96401.78;5086715;27;102129;-64
2022/07/20 02:34:05;;;;;;;3.80;3.50;;;;;;;17.89;100.00;96405.81;5052346;27;105634;-64
2022/07/20 02:36:32;;;;;;;4.07;3.63;;;;;;;17.95;100.00;96401.13;5089711;27;105349;-63
2022/07/20 02:38:59;;;;;;;3.87;3.57;;;;;;;18.05;100.00;96399.03;5052497;27;105809;-63
2022/07/20 02:41:26;;;;;;;4.30;3.20;;;;;;;18.15;100.00;96404.25;5051551;27;105505;-63
2022/07/20 02:43:53;;;;;;;3.67;3.37;;;;;;;18.06;100.00;96397.97;5086527;27;101903;-63
2022/07/20 02:46:20;;;;;;;3.37;3.07;;;;;;;18.14;100.00;96393.78;5071095;27;102817;-63
2022/07/20 02:48:49;;;;;;;4.23;3.70;;;;;;;18.01;100.00;96398.06;5051616;27;105582;-63
2022/07/20 02:51:16;;;;;;;3.60;3.30;;;;;;;18.14;100.00;96399.19;5052370;27;102109;-63
2022/07/20 02:53:43;;;;;;;4.33;3.53;;;;;;;18.18;100.00;96400.16;5086515;27;105015;-64
2022/07/20 02:56:10;;;;;;;3.87;3.57;;;;;;;18.23;100.00;96400.06;5051420;27;105512;-63
2022/07/20 02:58:38;;;;;;;3.37;3.07;;;;;;;18.24;100.00;96402.47;5055846;27;101795;-63
2022/07/20 03:01:05;;;;;;;3.97;3.67;;;;;;;18.01;100.00;96394.56;5051345;27;105679;-63
2022/07/20 03:03:32;;;;;;;3.83;3.27;;;;;;;18.12;100.00;96404.84;5073754;27;101743;-64
2022/07/20 03:06:01;;;;;;;4.37;3.83;;;;;;;17.88;100.00;96401.50;5055398;27;105017;-63
2022/07/20 03:08:28;;;;;;;3.67;3.37;;;;;;;17.83;100.00;96406.19;5055163;27;105407;-64
2022/07/20 03:10:55;;;;;;;3.63;3.33;;;;;;;17.76;100.00;96405.78;5038954;27;102072;-63
2022/07/20 03:13:23;;;;;;;3.83;3.50;;;;;;;17.68;100.00;96414.50;5073980;27;102354;-64
2022/07/20 03:15:50;;;;;;;6.93;3.67;;;;;;;17.40;100.00;96410.94;5055072;27;105504;-63
2022/07/20 03:18:16;;;;;;;3.40;3.10;;;;;;;17.43;100.00;96417.63;5059165;27;101908;-63
2022/07/20 03:20:44;;;;;;;3.93;3.40;;;;;;;17.66;100.00;96432.84;5054648;27;106620;-64
2022/07/20 03:23:13;;;;;;;5.10;3.30;;;;;;;17.69;100.00;96424.97;5055542;27;101917;-64
2022/07/20 03:25:40;;;;;;;3.83;3.37;;;;;;;17.78;100.00;96431.28;5055607;27;105187;-64
2022/07/20 03:28:07;;;;;;;6.00;3.83;;;;;;;17.76;100.00;96430.78;5073788;27;102013;-64
2022/07/20 03:30:34;;;;;;;5.60;3.83;;;;;;;17.83;100.00;96428.50;5073779;27;101845;-63
2022/07/20 03:33:01;;;;;;;4.17;3.70;;;;;;;17.90;100.00;96422.75;5073800;27;102505;-64
2022/07/20 03:35:29;;;;;;;4.23;3.63;;;;;;;17.83;100.00;96420.41;5073224;27;102621;-64
2022/07/20 03:37:56;;;;;;;4.10;3.77;;;;;;;17.38;100.00;96426.53;5074092;27;101708;-64
2022/07/20 03:40:25;;;;;;;4.53;3.50;;;;;;;17.31;100.00;96425.28;5076320;27;102291;-63
2022/07/20 03:42:53;;;;;;;6.17;3.97;;;;;;;17.45;100.00;96429.66;5073629;27;101893;-63
2022/07/20 03:45:20;;;;;;;5.30;3.60;;;;;;;17.51;100.00;96430.38;5073542;27;102357;-63
2022/07/20 03:47:47;;;;;;;7.07;3.57;;;;;;;17.72;100.00;96437.03;5073314;27;102705;-64
2022/07/20 03:50:14;;;;;;;3.63;3.33;;;;;;;17.89;100.00;96431.91;5073571;27;101802;-63
2022/07/20 03:52:41;;;;;;;4.17;3.77;;;;;;;17.87;100.00;96434.09;5073395;27;102664;-64
2022/07/20 03:55:09;;;;;;;4.03;3.73;;;;;;;17.76;100.00;96428.06;5054369;27;105974;-64
2022/07/20 03:57:38;;;;;;;5.20;4.13;;;;;;;17.44;100.00;96419.97;5073164;27;101888;-64
2022/07/20 04:00:07;;;;;;;4.23;3.67;;;;;;;17.68;100.00;96436.03;5073237;27;102886;-64
2022/07/20 04:02:34;;;;;;;4.87;4.20;;;;;;;17.61;100.00;96440.97;5057307;27;105780;-63
2022/07/20 04:05:09;;;;;;;5.73;3.33;;;;;;;17.64;100.00;96435.00;5054922;27;105221;-64
2022/07/20 04:07:36;;;;;;;4.00;3.47;;;;;;;17.64;100.00;96429.63;5073007;27;102932;-64
2022/07/20 04:10:04;;;;;;;4.37;3.97;;;;;;;17.63;100.00;96430.72;5073677;27;101927;-65
2022/07/20 04:12:31;;;;;;;4.10;3.73;;;;;;;17.62;100.00;96424.56;5072230;27;103104;-65
2022/07/20 04:15:05;;;;;;;4.13;3.73;;;;;;;17.79;100.00;96432.06;5052539;27;105846;-64
2022/07/20 04:17:32;;;;;;;4.30;3.90;;;;;;;17.68;100.00;96428.75;5073602;27;101779;-64
2022/07/20 04:20:25;;;;;;;4.63;4.17;;;;;;;17.67;100.00;96429.03;5072791;27;103078;-64
2022/07/20 04:22:52;;;;;;;3.80;3.50;;;;;;;17.77;100.00;96426.19;5054141;27;104058;-65
2022/07/20 04:25:34;;;;;;;4.50;4.10;;;;;;;17.83;100.00;96431.19;5076916;27;101838;-65
2022/07/20 04:28:00;;;;;;;5.57;4.20;;;;;;;17.97;100.00;96431.22;5072770;27;102105;-65
2022/07/20 04:30:31;;;;;;;4.13;3.73;;;;;;;18.03;100.00;96432.75;5072603;27;102891;-65
2022/07/20 04:32:59;;;;;;;4.37;3.83;;;;;;;18.20;100.00;96428.38;5052854;27;102326;-65
2022/07/20 04:35:42;;;;;;;5.20;3.43;;;;;;;18.54;100.00;96433.44;5033817;27;104351;-64
2022/07/20 04:38:09;;;;;;;4.57;4.10;;;;;;;18.52;100.00;96435.63;5044235;27;101993;-65
2022/07/20 04:40:36;;;;;;;4.93;4.23;;;;;;;18.48;100.00;96438.09;5054500;27;105179;-64
2022/07/20 04:43:03;;;;;;;4.77;4.27;;;;;;;18.62;100.00;96441.63;5053704;27;105453;-64
2022/07/20 04:45:33;;;;;;;4.37;3.63;;;;;;;18.86;100.00;96447.56;5073022;27;101856;-64
2022/07/20 04:48:00;;;;;;;4.83;4.00;;;;;;;19.08;100.00;96446.88;5076028;27;102363;-64
2022/07/20 04:50:50;;;;;;;5.03;4.57;;;;;;;19.15;100.00;96442.66;5072796;27;101817;-64
2022/07/20 04:53:17;;;;;;;3.97;3.67;;;;;;;19.37;100.00;96448.13;5060740;27;102400;-63
2022/07/20 04:56:32;;;;;;;4.50;4.10;;;;;;;19.59;100.00;96444.66;5072173;27;102771;-64
2022/07/20 04:58:59;;;;;;;4.40;4.00;;;;;;;19.68;100.00;96449.00;5054265;27;101895;-64
2022/07/20 05:01:29;;;;;;;4.87;4.47;;;;;;;19.78;100.00;96448.75;5072645;27;102358;-65
2022/07/20 05:03:56;;;;;;;6.17;4.40;;;;;;;19.96;100.00;96452.38;5072038;27;102608;-64
2022/07/20 05:06:23;;;;;;;5.33;4.60;;;;;;;19.97;100.00;96456.69;5072578;27;101923;-64
2022/07/20 05:08:50;;;;;;;5.67;4.70;;;;;;;20.11;100.00;96452.03;5072856;27;102629;-64
2022/07/20 05:11:17;;;;;;;4.67;4.27;;;;;;;20.25;100.00;96450.84;5075299;27;102150;-64
2022/07/20 05:13:44;;;;;;;5.13;4.43;;;;;;;20.19;100.00;96446.69;5072228;27;102798;-65
2022/07/20 05:16:50;;;;;;;5.37;4.70;;;;;;;20.26;100.00;96457.03;5053291;27;104024;-65
2022/07/20 05:20:05;;;;;;;4.87;4.40;;;;;;;20.30;100.00;96458.03;5060268;27;101945;-64
2022/07/20 05:22:34;;;;;;;7.90;5.23;;;;;;;20.04;100.00;96457.03;5033585;27;105179;-64
2022/07/20 05:25:02;;;;;;;5.40;4.80;;;;;;;20.25;100.00;96463.56;5033442;27;104213;-64
2022/07/20 05:27:30;;;;;;;5.97;4.90;;;;;;;20.25;100.00;96464.34;5072488;27;102241;-64
2022/07/20 05:29:57;;;;;;;6.93;4.30;;;;;;;20.46;100.00;96453.81;5072268;27;102352;-64
2022/07/20 05:32:24;;;;;;;5.53;4.40;;;;;;;20.58;100.00;96462.13;5056672;27;105538;-64
2022/07/20 05:35:02;;;;;;;5.47;4.30;;;;;;;20.65;100.00;96459.78;5053700;27;105789;-64
2022/07/20 05:37:30;;;;;;;4.27;3.87;;;;;;;20.90;100.00;96465.31;5032683;27;105444;-64
2022/07/20 05:39:59;;;;;;;6.37;3.90;;;;;;;21.10;100.00;96462.00;5033468;27;101934;-64
2022/07/20 05:42:26;;;;;;;7.00;4.23;;;;;;;21.30;100.00;96453.31;5033292;27;105281;-64
2022/07/20 05:45:00;;;;;;;5.23;4.30;;;;;;;21.45;100.00;96465.56;5068186;27;102610;-64
2022/07/20 05:47:27;;;;;;;5.37;4.70;;;;;;;21.48;100.00;96464.97;5051664;27;101919;-64
2022/07/20 05:53:17;;;;;;;5.50;4.20;;;;;;;21.76;100.00;96460.84;5045495;27;105030;-64
2022/07/20 05:55:57;;;;;;;4.70;4.30;;;;;;;21.90;100.00;96467.69;5056774;27;102033;-64
2022/07/20 05:58:27;;;;;;;4.67;4.03;;;;;;;22.11;100.00;96467.81;5071244;27;102663;-64
2022/07/20 06:00:54;;;;;;;4.90;4.50;;;;;;;22.15;100.00;96475.00;5036522;27;101862;-64
2022/07/20 06:03:21;;;;;;;5.37;4.33;;;;;;;22.16;100.00;96473.88;5053195;27;105471;-64
2022/07/20 06:05:51;;;;;;;5.77;4.10;;;;;;;22.39;100.00;96474.47;5052366;27;105409;-64
2022/07/20 06:08:19;;;;;;;4.30;3.90;;;;;;;22.60;100.00;96472.66;5053195;27;101907;-64
2022/07/20 06:10:46;;;;;;;8.97;4.10;;;;;;;22.63;100.00;96474.75;5071529;27;102650;-64
2022/07/20 06:13:15;;;;;;;7.40;4.23;;;;;;;22.74;100.00;96471.34;5051917;27;105841;-64
2022/07/20 06:15:49;;;;;;;5.83;4.50;;;;;;;22.95;100.00;96476.84;5071452;27;101840;-64
2022/07/20 06:18:16;;;;;;;7.13;4.10;;;;;;;22.88;100.00;96468.44;5077359;27;105359;-64
2022/07/20 06:20:52;;;;;;;6.27;3.87;;;;;;;23.08;100.00;96465.75;5041463;27;101965;-65
2022/07/20 06:23:20;;;;;;;4.67;3.87;;;;;;;23.33;100.00;96472.19;5051571;27;104857;-65
2022/07/20 06:29:10;;;;;;;6.37;3.97;;;;;;;23.47;100.00;96478.16;5052844;27;101766;-65
2022/07/20 06:31:38;;;;;;;4.20;3.80;;;;;;;23.53;100.00;96477.63;5069656;27;102551;-64
2022/07/20 06:34:06;;;;;;;6.30;4.20;;;;;;;23.66;100.00;96476.56;5052248;27;105391;-64
2022/07/20 06:36:46;;;;;;;4.47;3.63;;;;;;;23.79;100.00;96466.56;5071093;27;102034;-64
2022/07/20 06:39:14;;;;;;;4.63;4.20;;;;;;;23.97;100.00;96468.84;5071222;27;102937;-64
2022/07/20 06:41:40;;;;;;;6.63;4.07;;;;;;;24.09;100.00;96476.28;5073840;27;102794;-64
2022/07/20 06:44:12;;;;;;;4.93;4.17;;;;;;;24.20;100.00;96472.78;5070772;27;102734;-64
2022/07/20 06:46:58;;;;;;;4.10;3.70;;;;;;;24.39;100.00;96475.00;5046547;27;105505;-64
2022/07/20 06:49:27;;;;;;;4.83;4.33;;;;;;;24.40;100.00;96463.78;5068870;27;101876;-65
2022/07/20 06:51:54;;;;;;;5.83;4.43;;;;;;;24.66;100.00;96468.97;5070642;27;102529;-64
2022/07/20 06:54:22;;;;;;;4.80;4.30;;;;;;;24.91;100.00;96467.88;5070026;27;103156;-64
2022/07/20 06:57:07;;;;;;;5.63;4.50;;;;;;;25.04;100.00;96466.75;5052266;27;102059;-64
2022/07/20 06:59:37;;;;;;;4.20;3.77;;;;;;;25.01;100.00;96470.16;5052255;27;106700;-63
2022/07/20 07:02:04;;;;;;;5.07;3.93;;;;;;;25.16;100.00;96470.25;5069970;27;102629;-64
2022/07/20 07:04:31;;;;;;;4.80;4.40;;;;;;;25.15;100.00;96471.41;5073968;27;102154;-65
2022/07/20 07:07:24;;;;;;;11.33;5.13;;;;;;;24.54;100.00;96475.16;5070002;27;103107;-65
2022/07/20 07:09:51;;;;;;;6.40;4.43;;;;;;;24.67;100.00;96462.41;5070354;27;102353;-65
2022/07/20 07:12:18;;;;;;;5.63;4.60;;;;;;;25.07;100.00;96471.50;5070246;27;101911;-66
2022/07/20 07:14:48;;;;;;;7.87;4.43;;;;;;;25.45;100.00;96469.25;5069644;27;103234;-65
2022/07/20 07:17:15;;;;;;;4.67;4.27;;;;;;;25.71;100.00;96470.44;5070384;27;102119;-65
2022/07/20 07:19:50;;;;;;;6.17;4.27;;;;;;;25.96;100.00;96471.19;5052148;27;105200;-64
2022/07/20 07:22:18;;;;;;;6.30;4.43;;;;;;;25.78;100.00;96470.63;5069728;27;103133;-64
2022/07/20 07:24:50;;;;;;;7.83;4.10;;;;;;;25.58;100.00;96470.81;5073782;27;101875;-64
2022/07/20 07:27:17;;;;;;;6.60;4.40;;;;;;;25.77;100.00;96471.78;5070124;27;102746;-64
2022/07/20 07:29:44;;;;;;;5.60;4.80;;;;;;;25.68;100.00;96478.50;5051918;27;102309;-64
2022/07/20 07:32:13;;;;;;;8.13;4.47;;;;;;;25.79;100.00;96477.69;5070509;27;102528;-64
2022/07/20 07:34:55;;;;;;;6.80;4.83;;;;;;;25.72;100.00;96482.13;5030832;27;105477;-64
2022/07/20 07:37:23;;;;;;;6.73;4.60;;;;;;;25.87;100.00;96476.75;5038904;27;101980;-64
2022/07/20 07:39:50;;;;;;;7.07;4.27;;;;;;;26.35;100.00;96483.97;5070541;27;102458;-64
2022/07/20 07:42:17;;;;;;;5.90;4.00;;;;;;;26.63;100.00;96476.56;5050283;27;105562;-64
2022/07/20 07:44:43;;;;;;;5.10;4.40;;;;;;;26.59;100.00;96468.28;5069705;27;102031;-65
2022/07/20 07:47:12;;;;;;;6.33;4.20;;;;;;;26.38;100.00;96467.69;5054821;27;105197;-64
2022/07/20 07:49:46;;;;;;;5.63;4.23;;;;;;;26.76;100.00;96478.88;5073124;27;102262;-64
2022/07/20 07:52:13;;;;;;;6.97;4.50;;;;;;;26.82;100.00;96480.19;5055123;27;104026;-64
2022/07/20 07:54:40;;;;;;;5.83;4.50;;;;;;;26.60;100.00;96480.78;5072845;27;102674;-64
2022/07/20 07:57:08;;;;;;;7.20;4.30;;;;;;;26.82;100.00;96477.47;5089522;27;102057;-64
2022/07/20 07:59:35;;;;;;;4.90;4.33;;;;;;;27.48;100.00;96483.00;5073562;27;102980;-64
2022/07/20 08:02:02;;;;;;;7.47;4.90;;;;;;;27.81;100.00;96477.91;5054353;27;105276;-64
2022/07/20 08:04:31;;;;;;;6.03;4.20;;;;;;;28.03;100.00;96477.22;5054847;27;101991;-64
2022/07/20 08:10:21;;;;;;;6.47;4.03;;;;;;;28.26;100.00;96478.06;5057681;27;105729;-65
2022/07/20 08:12:48;;;;;;;6.33;4.87;;;;;;;28.42;100.00;96478.81;5054427;27;104323;-64
2022/07/20 08:15:17;;;;;;;5.90;4.30;;;;;;;27.81;100.00;96481.44;5054317;27;105632;-65
2022/07/20 08:17:46;;;;;;;6.97;4.10;;;;;;;28.48;100.00;96477.34;5053900;27;102120;-65
2022/07/20 08:20:44;;;;;;;7.87;4.90;;;;;;;28.72;100.00;96479.78;5072317;27;102299;-65
2022/07/20 08:23:11;;;;;;;6.40;4.40;;;;;;;28.91;100.00;96479.69;5072711;27;103190;-64
2022/07/20 08:25:39;;;;;;;6.47;4.10;;;;;;;29.18;100.00;96473.16;5073213;27;101901;-64
2022/07/20 08:28:11;;;;;;;6.80;4.40;;;;;;;28.42;100.00;96478.81;5073609;27;102447;-65
2022/07/20 08:30:39;;;;;;;9.63;5.10;;;;;;;28.15;100.00;96482.53;5072644;27;102766;-64
2022/07/20 08:33:06;;;;;;;9.43;4.97;;;;;;;28.41;100.00;96471.75;5076590;27;102157;-64
2022/07/20 08:35:35;;;;;;;8.97;4.53;;;;;;;28.99;100.00;96470.50;5072526;27;103249;-64
2022/07/20 08:38:05;;;;;;;7.23;4.27;;;;;;;29.40;100.00;96473.13;5054660;27;102224;-63
2022/07/20 08:40:32;;;;;;;7.83;4.53;;;;;;;29.41;100.00;96469.22;5073060;27;104071;-65
2022/07/20 08:43:01;;;;;;;6.37;4.23;;;;;;;29.75;100.00;96470.13;5053771;27;105371;-64
2022/07/20 08:45:33;;;;;;;7.85;4.68;;;;;;;29.76;100.00;96471.72;5054367;27;101974;-64
2022/07/20 08:48:04;;;;;;;6.95;4.53;;;;;;;30.07;100.00;96460.38;5054634;27;105720;-64
2022/07/20 08:50:50;;;;;;;5.53;4.45;;;;;;;30.38;95.49;96465.47;5072424;27;102655;-64
2022/07/20 08:53:19;;;;;;;4.50;3.88;;;;;;;30.52;100.00;96465.63;5073237;27;101762;-64
2022/07/20 08:56:22;;;;;;;6.35;4.43;;;;;;;30.44;100.00;96464.75;5075593;27;102911;-64
2022/07/20 08:58:49;;;;;;;7.15;4.97;;;;;;;30.43;98.08;96463.19;5072936;27;101794;-64
2022/07/20 09:01:17;;;;;;;7.32;4.35;;;;;;;29.80;97.06;96467.84;5071512;27;102527;-64
2022/07/20 09:03:45;;;;;;;6.25;4.07;;;;;;;30.42;100.00;96460.81;5072100;27;103114;-64
2022/07/20 09:06:14;;;;;;;4.43;4.00;;;;;;;30.53;97.01;96468.00;5072669;27;101887;-64
2022/07/20 09:09:05;;;;;;;6.97;4.57;;;;;;;30.67;90.79;96459.16;5072826;27;102439;-64
2022/07/20 09:11:32;;;;;;;6.72;4.25;;;;;;;30.72;92.99;96458.81;5072130;27;102449;-64
2022/07/20 09:14:00;;;;;;;7.88;4.55;;;;;;;30.95;93.49;96464.91;5053789;27;102014;-64
2022/07/20 09:16:55;;;;;;;4.68;4.28;;;;;;;30.98;92.65;96466.88;5072754;27;102410;-64
2022/07/20 09:19:28;;;;;;;4.95;4.30;;;;;;;30.18;91.84;96455.84;5075203;27;103126;-64
2022/07/20 09:21:55;;;;;;;7.05;4.20;;;;;;;30.08;91.48;96456.47;5072552;27;102620;-65
2022/07/20 09:24:25;;;;;;;6.63;4.10;;;;;;;30.69;89.58;96459.56;5071813;27;102953;-65
2022/07/20 09:27:05;;;;;;;7.90;4.78;;;;;;;30.79;82.38;96448.66;5072462;27;101690;-67
2022/07/20 09:29:33;;;;;;;7.13;4.50;;;;;;;30.72;86.03;96454.09;5054401;27;101740;-67
2022/07/20 09:32:03;;;;;;;8.65;4.50;;;;;;;31.14;83.91;96456.44;5065826;27;103303;-67
2022/07/20 09:34:30;;;;;;;6.30;4.80;;;;;;;31.01;93.01;96458.66;5047019;27;102467;-67
2022/07/20 09:36:58;;;;;;;8.85;4.40;;;;;;;31.76;76.82;96458.13;5066157;27;102671;-66
2022/07/20 09:39:27;;;;;;;4.85;4.43;;;;;;;31.68;83.50;96456.44;5082580;27;103900;-66
2022/07/20 09:41:56;;;;;;;5.72;4.25;;;;;;;32.26;87.99;96457.19;5060554;27;102420;-66
2022/07/20 09:44:25;;;;;;;5.25;4.68;;;;;;;32.62;84.07;96461.59;5051817;27;105679;-65
2022/07/20 09:46:59;;;;;;;7.30;3.90;;;;;;;32.71;83.50;96459.28;5053343;27;102024;-65
2022/07/20 09:49:31;;;;;;;5.25;4.80;;;;;;;32.95;72.23;96461.28;5048403;27;105444;-68
2022/07/20 09:52:00;;;;;;;6.72;3.90;;;;;;;33.10;61.80;96463.69;5067011;27;103426;-67
2022/07/20 09:54:29;;;;;;;6.13;4.28;;;;;;;32.86;78.47;96455.41;5065899;27;102064;-67
2022/07/20 09:56:57;;;;;;;6.20;3.88;;;;;;;33.07;61.22;96460.94;5064288;27;102443;-67
2022/07/20 09:59:24;;;;;;;5.93;4.28;;;;;;;32.80;54.44;96456.97;5065173;27;103230;-66
2022/07/20 10:01:52;;;;;;;4.57;4.10;;;;;;;32.87;54.56;96448.72;5049591;27;101995;-65
2022/07/20 10:04:21;;;;;;;6.53;4.47;;;;;;;33.00;63.51;96452.63;5049821;27;105548;-67
2022/07/20 10:07:00;;;;;;;5.57;4.20;;;;;;;33.14;67.61;96452.66;5071086;27;102203;-67
2022/07/20 10:09:30;;;;;;;5.53;3.60;;;;;;;32.88;63.83;96464.06;5067805;27;102374;-67
2022/07/20 10:11:58;;;;;;;6.85;4.40;;;;;;;32.51;66.20;96447.81;5064451;27;103220;-66
2022/07/20 10:14:27;;;;;;;7.95;4.18;;;;;;;33.34;74.09;96448.34;5047967;27;102252;-66
2022/07/20 10:17:06;;;;;;;5.82;4.07;;;;;;;33.95;67.52;96440.34;5047605;27;106204;-67
2022/07/20 10:19:43;;;;;;;6.22;3.90;;;;;;;34.32;56.83;96446.16;5066443;27;102815;-67
2022/07/20 10:22:11;;;;;;;4.47;4.05;;;;;;;34.54;58.35;96449.59;5046247;27;102597;-67
2022/07/20 10:24:43;;;;;;;6.45;3.88;;;;;;;34.67;55.02;96443.22;5067317;27;102774;-67
2022/07/20 10:27:27;;;;;;;3.88;3.55;;;;;;;34.82;55.83;96450.22;5045918;27;102512;-67
2022/07/20 10:29:57;;;;;;;4.88;3.50;;;;;;;34.49;46.93;96450.03;5068506;27;101993;-66
2022/07/20 10:32:30;;;;;;;5.60;3.83;;;;;;;34.89;40.23;96450.19;5051914;27;105855;-67
2022/07/20 10:35:27;;;;;;;4.43;3.63;;;;;;;34.67;41.17;96448.75;5084690;27;103217;-67
2022/07/20 10:38:02;;;;;;;4.07;3.58;;;;;;;35.02;38.89;96442.97;5052512;27;104889;-67
2022/07/20 10:41:31;;;;;;;8.07;4.15;;;;;;;35.17;38.96;96438.13;5069355;27;102958;-67
2022/07/20 10:43:22;;;;;;;4.40;3.30;;;;;;;34.89;37.89;96441.09;5069918;27;101876;-67
2022/07/20 10:46:33;;;;;;;4.20;3.78;;;;;;;34.64;38.53;96435.72;5070906;27;102295;-69
2022/07/20 10:49:02;;;;;;;4.28;3.58;;;;;;;35.35;41.53;96441.56;5054942;27;103363;-69
2022/07/20 10:51:33;;;;;;;4.25;3.63;;;;;;;35.39;41.74;96439.53;5067277;27;106087;-69
2022/07/20 10:54:36;;;;;;;4.93;3.80;;;;;;;35.69;42.48;96432.13;5042339;27;102533;-69
2022/07/20 10:57:08;;;;;;;4.65;3.70;;;;;;;36.26;40.37;96437.84;5070857;27;101967;-69
2022/07/20 10:59:39;;;;;;;3.85;3.50;;;;;;;36.44;39.94;96435.66;5070367;27;102348;-69
2022/07/20 11:02:08;;;;;;;6.43;3.95;;;;;;;36.21;40.48;96432.75;5035016;27;106346;-69
2022/07/20 11:04:44;;;;;;;5.60;3.28;;;;;;;36.74;40.34;96424.56;5070203;27;102300;-69
2022/07/20 11:07:34;;;;;;;4.38;3.78;;;;;;;36.82;36.54;96432.34;5070361;27;102389;-67
2022/07/20 11:13:13;;;;;;;3.47;3.17;;;;;;;36.58;39.20;96427.13;5071765;27;101914;-67
2022/07/20 11:15:51;;;;;;;5.00;3.47;;;;;;;36.71;35.56;96419.84;5051165;27;102827;-67
2022/07/20 11:18:25;;;;;;;3.80;3.40;;;;;;;37.10;36.50;96423.59;5085833;27;101987;-66
2022/07/20 11:21:00;;;;;;;4.03;3.70;;;;;;;37.22;37.01;96423.00;5051657;27;104832;-66
2022/07/20 11:23:39;;;;;;;4.68;3.50;;;;;;;37.11;37.55;96411.31;5071015;27;103105;-66
2022/07/20 11:26:10;;;;;;;6.00;3.13;;;;;;;37.30;34.27;96418.13;5074114;27;101776;-67
2022/07/20 11:28:46;;;;;;;5.40;3.50;;;;;;;37.33;33.84;96412.50;5073367;27;102438;-66
2022/07/20 11:31:16;;;;;;;6.28;3.60;;;;;;;37.35;35.62;96412.09;5072778;27;102514;-66
2022/07/20 11:33:46;;;;;;;4.05;3.15;;;;;;;37.53;36.84;96405.03;5073237;27;101912;-67
2022/07/20 11:36:44;;;;;;;3.45;3.10;;;;;;;37.49;35.17;96406.31;5058026;27;103704;-67
2022/07/20 11:39:13;;;;;;;4.55;3.28;;;;;;;35.99;31.26;96406.50;5065241;27;101813;-67
2022/07/20 11:41:42;;;;;;;3.95;3.35;;;;;;;36.92;34.76;96402.88;5072969;27;102392;-67
2022/07/20 11:44:21;;;;;;;4.88;3.20;;;;;;;37.63;32.90;96403.28;5053780;27;103910;-67
2022/07/20 11:46:50;;;;;;;3.53;3.25;;;;;;;37.99;34.40;96398.63;5072863;27;101868;-67
2022/07/20 11:49:20;;;;;;;3.53;3.22;;;;;;;38.08;33.68;96399.63;5053543;27;105116;-66
2022/07/20 11:51:53;;;;;;;3.45;2.95;;;;;;;38.28;30.88;96399.59;5052758;27;105262;-68
2022/07/20 11:54:21;;;;;;;4.40;3.30;;;;;;;37.62;29.91;96396.97;5053981;27;102228;-68